sensor_id;sensor_type;location;lat;lon;timestamp;P1;durP1;ratioP1;P2;durP2;ratioP2
18296;SDS011;18066;52.106;5.534;2023-05-14T00:01:04;21.97;;;14.37;;
18296;SDS011;18066;52.106;5.534;2023-05-14T00:03:32;19.67;;;15.57;;
18296;SDS011;18066;52.106;5.534;2023-05-14T00:05:58;21.30;;;15.40;;
18296;SDS011;18066;52.106;5.534;2023-05-14T00:08:25;17.30;;;14.70;;
18296;SDS011;18066;52.106;5.534;2023-05-14T00:10:53;22.30;;;15.17;;
18296;SDS011;18066;52.106;5.534;2023-05-14T00:13:19;19.13;;;15.07;;
18296;SDS011;18066;52.106;5.534;2023-05-14T00:15:46;26.03;;;15.57;;
18296;SDS011;18066;52.106;5.534;2023-05-14T00:18:14;26.13;;;16.77;;
18296;SDS011;18066;52.106;5.534;2023-05-14T00:20:41;18.43;;;13.93;;
18296;SDS011;18066;52.106;5.534;2023-05-14T00:23:08;22.40;;;14.73;;
18296;SDS011;18066;52.106;5.534;2023-05-14T00:25:35;21.30;;;14.50;;
18296;SDS011;18066;52.106;5.534;2023-05-14T00:28:02;18.83;;;14.57;;
18296;SDS011;18066;52.106;5.534;2023-05-14T00:30:29;18.20;;;14.67;;
18296;SDS011;18066;52.106;5.534;2023-05-14T00:32:56;22.27;;;14.90;;
18296;SDS011;18066;52.106;5.534;2023-05-14T00:35:24;23.87;;;14.23;;
18296;SDS011;18066;52.106;5.534;2023-05-14T00:37:50;20.87;;;15.43;;
18296;SDS011;18066;52.106;5.534;2023-05-14T00:40:17;23.53;;;15.07;;
18296;SDS011;18066;52.106;5.534;2023-05-14T00:42:45;21.63;;;14.53;;
18296;SDS011;18066;52.106;5.534;2023-05-14T00:45:11;21.70;;;15.37;;
18296;SDS011;18066;52.106;5.534;2023-05-14T00:47:38;21.73;;;14.73;;
18296;SDS011;18066;52.106;5.534;2023-05-14T00:50:06;18.87;;;14.30;;
18296;SDS011;18066;52.106;5.534;2023-05-14T00:52:34;21.33;;;15.43;;
18296;SDS011;18066;52.106;5.534;2023-05-14T00:55:03;18.73;;;14.33;;
18296;SDS011;18066;52.106;5.534;2023-05-14T00:57:32;22.80;;;14.43;;
18296;SDS011;18066;52.106;5.534;2023-05-14T01:00:00;21.37;;;14.17;;
18296;SDS011;18066;52.106;5.534;2023-05-14T01:02:27;20.83;;;14.70;;
18296;SDS011;18066;52.106;5.534;2023-05-14T01:04:54;19.40;;;14.40;;
18296;SDS011;18066;52.106;5.534;2023-05-14T01:07:23;22.37;;;14.40;;
18296;SDS011;18066;52.106;5.534;2023-05-14T01:09:57;18.40;;;13.27;;
18296;SDS011;18066;52.106;5.534;2023-05-14T01:12:31;18.63;;;14.13;;
18296;SDS011;18066;52.106;5.534;2023-05-14T01:15:01;19.50;;;13.60;;
18296;SDS011;18066;52.106;5.534;2023-05-14T01:17:36;22.93;;;14.23;;
18296;SDS011;18066;52.106;5.534;2023-05-14T01:20:07;20.03;;;14.03;;
18296;SDS011;18066;52.106;5.534;2023-05-14T01:22:35;21.27;;;13.47;;
18296;SDS011;18066;52.106;5.534;2023-05-14T01:25:02;20.90;;;13.83;;
18296;SDS011;18066;52.106;5.534;2023-05-14T01:27:30;17.50;;;13.30;;
18296;SDS011;18066;52.106;5.534;2023-05-14T01:30:05;22.90;;;13.90;;
18296;SDS011;18066;52.106;5.534;2023-05-14T01:32:35;19.83;;;14.07;;
18296;SDS011;18066;52.106;5.534;2023-05-14T01:35:05;20.23;;;14.23;;
18296;SDS011;18066;52.106;5.534;2023-05-14T01:37:33;17.03;;;12.93;;
18296;SDS011;18066;52.106;5.534;2023-05-14T01:40:02;17.27;;;12.97;;
18296;SDS011;18066;52.106;5.534;2023-05-14T01:42:30;21.23;;;13.37;;
18296;SDS011;18066;52.106;5.534;2023-05-14T01:44:58;20.07;;;14.30;;
18296;SDS011;18066;52.106;5.534;2023-05-14T01:47:24;20.13;;;13.67;;
18296;SDS011;18066;52.106;5.534;2023-05-14T01:49:51;23.07;;;13.80;;
18296;SDS011;18066;52.106;5.534;2023-05-14T01:52:18;19.67;;;13.87;;
18296;SDS011;18066;52.106;5.534;2023-05-14T01:54:47;20.30;;;13.63;;
18296;SDS011;18066;52.106;5.534;2023-05-14T01:57:14;18.77;;;14.13;;
18296;SDS011;18066;52.106;5.534;2023-05-14T01:59:40;16.70;;;14.30;;
18296;SDS011;18066;52.106;5.534;2023-05-14T02:02:07;18.53;;;13.60;;
18296;SDS011;18066;52.106;5.534;2023-05-14T02:04:34;16.83;;;13.20;;
18296;SDS011;18066;52.106;5.534;2023-05-14T02:07:01;23.17;;;13.83;;
18296;SDS011;18066;52.106;5.534;2023-05-14T02:09:27;19.67;;;13.40;;
18296;SDS011;18066;52.106;5.534;2023-05-14T02:11:56;21.40;;;13.90;;
18296;SDS011;18066;52.106;5.534;2023-05-14T02:14:22;20.80;;;12.80;;
18296;SDS011;18066;52.106;5.534;2023-05-14T02:16:49;18.17;;;13.37;;
18296;SDS011;18066;52.106;5.534;2023-05-14T02:19:16;22.53;;;13.30;;
18296;SDS011;18066;52.106;5.534;2023-05-14T02:21:43;15.80;;;12.73;;
18296;SDS011;18066;52.106;5.534;2023-05-14T02:24:09;21.03;;;13.63;;
18296;SDS011;18066;52.106;5.534;2023-05-14T02:26:36;21.57;;;13.73;;
18296;SDS011;18066;52.106;5.534;2023-05-14T02:29:04;18.60;;;12.83;;
18296;SDS011;18066;52.106;5.534;2023-05-14T02:31:31;21.13;;;13.63;;
18296;SDS011;18066;52.106;5.534;2023-05-14T02:33:59;17.70;;;12.70;;
18296;SDS011;18066;52.106;5.534;2023-05-14T02:36:26;18.63;;;12.40;;
18296;SDS011;18066;52.106;5.534;2023-05-14T02:38:53;18.60;;;12.80;;
18296;SDS011;18066;52.106;5.534;2023-05-14T02:41:20;18.20;;;12.80;;
18296;SDS011;18066;52.106;5.534;2023-05-14T02:43:46;21.20;;;12.63;;
18296;SDS011;18066;52.106;5.534;2023-05-14T02:46:14;24.80;;;13.03;;
18296;SDS011;18066;52.106;5.534;2023-05-14T02:48:41;16.70;;;11.93;;
18296;SDS011;18066;52.106;5.534;2023-05-14T02:51:08;23.10;;;12.23;;
18296;SDS011;18066;52.106;5.534;2023-05-14T02:53:35;17.10;;;11.83;;
18296;SDS011;18066;52.106;5.534;2023-05-14T02:56:02;18.43;;;12.33;;
18296;SDS011;18066;52.106;5.534;2023-05-14T02:58:29;16.63;;;12.37;;
18296;SDS011;18066;52.106;5.534;2023-05-14T03:00:56;16.60;;;12.83;;
18296;SDS011;18066;52.106;5.534;2023-05-14T03:03:24;19.73;;;13.07;;
18296;SDS011;18066;52.106;5.534;2023-05-14T03:05:51;18.83;;;13.57;;
18296;SDS011;18066;52.106;5.534;2023-05-14T03:08:18;20.80;;;14.23;;
18296;SDS011;18066;52.106;5.534;2023-05-14T03:10:45;22.87;;;13.70;;
18296;SDS011;18066;52.106;5.534;2023-05-14T03:13:11;18.40;;;13.20;;
18296;SDS011;18066;52.106;5.534;2023-05-14T03:15:41;19.23;;;13.07;;
18296;SDS011;18066;52.106;5.534;2023-05-14T03:18:08;19.83;;;13.27;;
18296;SDS011;18066;52.106;5.534;2023-05-14T03:20:36;19.13;;;12.70;;
18296;SDS011;18066;52.106;5.534;2023-05-14T03:23:03;18.30;;;13.17;;
18296;SDS011;18066;52.106;5.534;2023-05-14T03:25:30;15.70;;;12.67;;
18296;SDS011;18066;52.106;5.534;2023-05-14T03:27:58;21.43;;;13.53;;
18296;SDS011;18066;52.106;5.534;2023-05-14T03:30:25;17.33;;;13.70;;
18296;SDS011;18066;52.106;5.534;2023-05-14T03:32:52;17.07;;;14.07;;
18296;SDS011;18066;52.106;5.534;2023-05-14T03:35:19;20.30;;;12.83;;
18296;SDS011;18066;52.106;5.534;2023-05-14T03:37:47;18.67;;;12.70;;
18296;SDS011;18066;52.106;5.534;2023-05-14T03:40:13;16.93;;;13.03;;
18296;SDS011;18066;52.106;5.534;2023-05-14T03:42:40;21.30;;;13.23;;
18296;SDS011;18066;52.106;5.534;2023-05-14T03:45:08;21.03;;;12.70;;
18296;SDS011;18066;52.106;5.534;2023-05-14T03:47:35;18.03;;;13.50;;
18296;SDS011;18066;52.106;5.534;2023-05-14T03:50:02;20.97;;;12.73;;
18296;SDS011;18066;52.106;5.534;2023-05-14T03:52:29;17.73;;;13.00;;
18296;SDS011;18066;52.106;5.534;2023-05-14T03:54:57;19.70;;;12.47;;
18296;SDS011;18066;52.106;5.534;2023-05-14T03:57:24;18.97;;;13.13;;
18296;SDS011;18066;52.106;5.534;2023-05-14T03:59:50;17.97;;;12.50;;
18296;SDS011;18066;52.106;5.534;2023-05-14T04:02:17;16.33;;;12.13;;
18296;SDS011;18066;52.106;5.534;2023-05-14T04:04:44;17.80;;;13.37;;
18296;SDS011;18066;52.106;5.534;2023-05-14T04:07:11;19.40;;;13.30;;
18296;SDS011;18066;52.106;5.534;2023-05-14T04:09:37;20.10;;;13.00;;
18296;SDS011;18066;52.106;5.534;2023-05-14T04:12:06;17.90;;;13.03;;
18296;SDS011;18066;52.106;5.534;2023-05-14T04:14:33;22.17;;;13.87;;
18296;SDS011;18066;52.106;5.534;2023-05-14T04:17:00;26.30;;;13.67;;
18296;SDS011;18066;52.106;5.534;2023-05-14T04:19:27;18.10;;;12.63;;
18296;SDS011;18066;52.106;5.534;2023-05-14T04:21:54;18.27;;;13.10;;
18296;SDS011;18066;52.106;5.534;2023-05-14T04:24:21;18.03;;;14.10;;
18296;SDS011;18066;52.106;5.534;2023-05-14T04:26:48;20.77;;;13.60;;
18296;SDS011;18066;52.106;5.534;2023-05-14T04:29:16;19.40;;;13.40;;
18296;SDS011;18066;52.106;5.534;2023-05-14T04:31:43;20.80;;;12.77;;
18296;SDS011;18066;52.106;5.534;2023-05-14T04:34:10;20.77;;;14.07;;
18296;SDS011;18066;52.106;5.534;2023-05-14T04:36:37;18.70;;;13.33;;
18296;SDS011;18066;52.106;5.534;2023-05-14T04:39:04;22.10;;;13.60;;
18296;SDS011;18066;52.106;5.534;2023-05-14T04:41:30;21.77;;;13.87;;
18296;SDS011;18066;52.106;5.534;2023-05-14T04:43:58;17.97;;;14.10;;
18296;SDS011;18066;52.106;5.534;2023-05-14T04:46:27;18.03;;;13.33;;
18296;SDS011;18066;52.106;5.534;2023-05-14T04:48:54;19.70;;;13.30;;
18296;SDS011;18066;52.106;5.534;2023-05-14T04:51:21;17.90;;;13.40;;
18296;SDS011;18066;52.106;5.534;2023-05-14T04:53:48;21.90;;;14.07;;
18296;SDS011;18066;52.106;5.534;2023-05-14T04:56:15;22.30;;;14.57;;
18296;SDS011;18066;52.106;5.534;2023-05-14T04:58:42;20.40;;;13.57;;
18296;SDS011;18066;52.106;5.534;2023-05-14T05:01:09;21.47;;;13.57;;
18296;SDS011;18066;52.106;5.534;2023-05-14T05:03:37;21.50;;;14.40;;
18296;SDS011;18066;52.106;5.534;2023-05-14T05:06:04;20.73;;;13.87;;
18296;SDS011;18066;52.106;5.534;2023-05-14T05:08:31;19.43;;;14.03;;
18296;SDS011;18066;52.106;5.534;2023-05-14T05:10:57;18.27;;;13.73;;
18296;SDS011;18066;52.106;5.534;2023-05-14T05:13:24;19.33;;;13.77;;
18296;SDS011;18066;52.106;5.534;2023-05-14T05:15:51;22.13;;;13.37;;
18296;SDS011;18066;52.106;5.534;2023-05-14T05:18:18;23.97;;;13.80;;
18296;SDS011;18066;52.106;5.534;2023-05-14T05:20:46;19.30;;;13.53;;
18296;SDS011;18066;52.106;5.534;2023-05-14T05:23:13;19.03;;;14.03;;
18296;SDS011;18066;52.106;5.534;2023-05-14T05:25:40;22.90;;;14.40;;
18296;SDS011;18066;52.106;5.534;2023-05-14T05:28:06;20.07;;;13.80;;
18296;SDS011;18066;52.106;5.534;2023-05-14T05:30:33;22.30;;;12.47;;
18296;SDS011;18066;52.106;5.534;2023-05-14T05:33:00;21.63;;;14.23;;
18296;SDS011;18066;52.106;5.534;2023-05-14T05:35:27;21.87;;;12.97;;
18296;SDS011;18066;52.106;5.534;2023-05-14T05:37:56;17.67;;;12.67;;
18296;SDS011;18066;52.106;5.534;2023-05-14T05:40:22;19.30;;;13.50;;
18296;SDS011;18066;52.106;5.534;2023-05-14T05:42:49;15.93;;;12.27;;
18296;SDS011;18066;52.106;5.534;2023-05-14T05:45:16;21.87;;;12.63;;
18296;SDS011;18066;52.106;5.534;2023-05-14T05:47:43;20.17;;;12.03;;
18296;SDS011;18066;52.106;5.534;2023-05-14T05:50:09;23.00;;;13.17;;
18296;SDS011;18066;52.106;5.534;2023-05-14T05:52:36;17.43;;;12.57;;
18296;SDS011;18066;52.106;5.534;2023-05-14T05:55:06;17.90;;;12.67;;
18296;SDS011;18066;52.106;5.534;2023-05-14T05:57:33;19.67;;;13.13;;
18296;SDS011;18066;52.106;5.534;2023-05-14T06:00:00;20.40;;;12.77;;
18296;SDS011;18066;52.106;5.534;2023-05-14T06:02:36;19.33;;;12.87;;
18296;SDS011;18066;52.106;5.534;2023-05-14T06:05:03;16.80;;;12.37;;
18296;SDS011;18066;52.106;5.534;2023-05-14T06:07:31;17.73;;;12.33;;
18296;SDS011;18066;52.106;5.534;2023-05-14T06:09:57;23.57;;;13.17;;
18296;SDS011;18066;52.106;5.534;2023-05-14T06:12:26;20.27;;;13.53;;
18296;SDS011;18066;52.106;5.534;2023-05-14T06:14:53;19.10;;;11.83;;
18296;SDS011;18066;52.106;5.534;2023-05-14T06:17:21;17.63;;;12.57;;
18296;SDS011;18066;52.106;5.534;2023-05-14T06:19:48;17.23;;;11.87;;
18296;SDS011;18066;52.106;5.534;2023-05-14T06:22:16;19.73;;;12.93;;
18296;SDS011;18066;52.106;5.534;2023-05-14T06:24:42;18.50;;;13.33;;
18296;SDS011;18066;52.106;5.534;2023-05-14T06:27:09;20.70;;;12.63;;
18296;SDS011;18066;52.106;5.534;2023-05-14T06:29:38;18.67;;;12.40;;
18296;SDS011;18066;52.106;5.534;2023-05-14T06:32:05;23.43;;;13.27;;
18296;SDS011;18066;52.106;5.534;2023-05-14T06:34:32;22.83;;;13.40;;
18296;SDS011;18066;52.106;5.534;2023-05-14T06:36:59;17.40;;;12.27;;
18296;SDS011;18066;52.106;5.534;2023-05-14T06:39:28;15.63;;;12.37;;
18296;SDS011;18066;52.106;5.534;2023-05-14T06:41:54;18.47;;;12.07;;
18296;SDS011;18066;52.106;5.534;2023-05-14T06:44:21;19.80;;;12.60;;
18296;SDS011;18066;52.106;5.534;2023-05-14T06:46:49;16.93;;;11.90;;
18296;SDS011;18066;52.106;5.534;2023-05-14T06:49:16;17.77;;;12.03;;
18296;SDS011;18066;52.106;5.534;2023-05-14T06:51:43;18.33;;;11.82;;
18296;SDS011;18066;52.106;5.534;2023-05-14T06:54:10;19.80;;;10.80;;
18296;SDS011;18066;52.106;5.534;2023-05-14T06:56:37;19.90;;;12.80;;
18296;SDS011;18066;52.106;5.534;2023-05-14T06:59:04;15.93;;;12.23;;
18296;SDS011;18066;52.106;5.534;2023-05-14T07:01:31;22.65;;;11.80;;
18296;SDS011;18066;52.106;5.534;2023-05-14T07:03:59;15.98;;;11.07;;
18296;SDS011;18066;52.106;5.534;2023-05-14T07:06:26;15.05;;;11.10;;
18296;SDS011;18066;52.106;5.534;2023-05-14T07:08:52;20.27;;;11.87;;
18296;SDS011;18066;52.106;5.534;2023-05-14T07:11:19;17.08;;;11.15;;
18296;SDS011;18066;52.106;5.534;2023-05-14T07:13:47;18.90;;;11.97;;
18296;SDS011;18066;52.106;5.534;2023-05-14T07:16:13;17.30;;;11.60;;
18296;SDS011;18066;52.106;5.534;2023-05-14T07:18:40;17.15;;;11.23;;
18296;SDS011;18066;52.106;5.534;2023-05-14T07:21:09;20.10;;;11.02;;
18296;SDS011;18066;52.106;5.534;2023-05-14T07:23:36;19.00;;;11.32;;
18296;SDS011;18066;52.106;5.534;2023-05-14T07:26:03;18.73;;;11.95;;
18296;SDS011;18066;52.106;5.534;2023-05-14T07:28:31;11.88;;;10.23;;
18296;SDS011;18066;52.106;5.534;2023-05-14T07:30:58;18.10;;;10.85;;
18296;SDS011;18066;52.106;5.534;2023-05-14T07:33:24;15.73;;;10.57;;
18296;SDS011;18066;52.106;5.534;2023-05-14T07:35:51;15.43;;;11.10;;
18296;SDS011;18066;52.106;5.534;2023-05-14T07:38:20;17.92;;;10.93;;
18296;SDS011;18066;52.106;5.534;2023-05-14T07:40:47;16.42;;;9.90;;
18296;SDS011;18066;52.106;5.534;2023-05-14T07:43:13;18.73;;;11.32;;
18296;SDS011;18066;52.106;5.534;2023-05-14T07:45:40;18.48;;;10.25;;
18296;SDS011;18066;52.106;5.534;2023-05-14T07:48:07;14.60;;;10.35;;
18296;SDS011;18066;52.106;5.534;2023-05-14T07:50:35;16.10;;;10.50;;
18296;SDS011;18066;52.106;5.534;2023-05-14T07:53:02;16.45;;;10.52;;
18296;SDS011;18066;52.106;5.534;2023-05-14T07:55:30;16.83;;;9.82;;
18296;SDS011;18066;52.106;5.534;2023-05-14T07:57:57;15.90;;;9.82;;
18296;SDS011;18066;52.106;5.534;2023-05-14T08:00:24;12.85;;;8.85;;
18296;SDS011;18066;52.106;5.534;2023-05-14T08:02:51;16.23;;;10.05;;
18296;SDS011;18066;52.106;5.534;2023-05-14T08:05:18;15.52;;;10.07;;
18296;SDS011;18066;52.106;5.534;2023-05-14T08:07:44;14.73;;;9.23;;
18296;SDS011;18066;52.106;5.534;2023-05-14T08:10:11;14.77;;;10.05;;
18296;SDS011;18066;52.106;5.534;2023-05-14T08:12:39;13.20;;;9.35;;
18296;SDS011;18066;52.106;5.534;2023-05-14T08:15:07;21.63;;;10.32;;
18296;SDS011;18066;52.106;5.534;2023-05-14T08:17:34;13.63;;;9.38;;
18296;SDS011;18066;52.106;5.534;2023-05-14T08:20:01;13.82;;;9.68;;
18296;SDS011;18066;52.106;5.534;2023-05-14T08:22:30;16.27;;;10.35;;
18296;SDS011;18066;52.106;5.534;2023-05-14T08:24:56;18.98;;;9.43;;
18296;SDS011;18066;52.106;5.534;2023-05-14T08:27:24;14.00;;;9.07;;
18296;SDS011;18066;52.106;5.534;2023-05-14T08:29:53;12.18;;;9.20;;
18296;SDS011;18066;52.106;5.534;2023-05-14T08:32:20;14.38;;;9.23;;
18296;SDS011;18066;52.106;5.534;2023-05-14T08:34:47;17.73;;;9.15;;
18296;SDS011;18066;52.106;5.534;2023-05-14T08:37:14;11.52;;;9.20;;
18296;SDS011;18066;52.106;5.534;2023-05-14T08:39:40;11.18;;;8.52;;
18296;SDS011;18066;52.106;5.534;2023-05-14T08:42:07;12.88;;;9.65;;
18296;SDS011;18066;52.106;5.534;2023-05-14T08:44:37;15.60;;;8.90;;
18296;SDS011;18066;52.106;5.534;2023-05-14T08:47:11;11.35;;;8.57;;
18296;SDS011;18066;52.106;5.534;2023-05-14T08:49:41;13.20;;;9.18;;
18296;SDS011;18066;52.106;5.534;2023-05-14T08:52:09;11.50;;;8.30;;
18296;SDS011;18066;52.106;5.534;2023-05-14T08:54:36;12.10;;;8.15;;
18296;SDS011;18066;52.106;5.534;2023-05-14T08:57:03;14.02;;;9.15;;
18296;SDS011;18066;52.106;5.534;2023-05-14T08:59:31;11.63;;;8.75;;
18296;SDS011;18066;52.106;5.534;2023-05-14T09:02:00;17.00;;;9.18;;
18296;SDS011;18066;52.106;5.534;2023-05-14T09:04:30;11.90;;;7.82;;
18296;SDS011;18066;52.106;5.534;2023-05-14T09:06:58;10.88;;;8.52;;
18296;SDS011;18066;52.106;5.534;2023-05-14T09:09:27;11.25;;;8.45;;
18296;SDS011;18066;52.106;5.534;2023-05-14T09:11:54;16.98;;;9.95;;
18296;SDS011;18066;52.106;5.534;2023-05-14T09:14:21;14.88;;;10.18;;
18296;SDS011;18066;52.106;5.534;2023-05-14T09:16:48;11.27;;;8.82;;
18296;SDS011;18066;52.106;5.534;2023-05-14T09:19:16;15.70;;;9.43;;
18296;SDS011;18066;52.106;5.534;2023-05-14T09:21:45;13.90;;;8.27;;
18296;SDS011;18066;52.106;5.534;2023-05-14T09:24:17;16.20;;;9.43;;
18296;SDS011;18066;52.106;5.534;2023-05-14T09:26:48;14.98;;;9.38;;
18296;SDS011;18066;52.106;5.534;2023-05-14T09:29:15;16.13;;;10.82;;
18296;SDS011;18066;52.106;5.534;2023-05-14T09:31:42;15.68;;;10.93;;
18296;SDS011;18066;52.106;5.534;2023-05-14T09:34:09;16.90;;;10.32;;
18296;SDS011;18066;52.106;5.534;2023-05-14T09:36:36;16.30;;;10.75;;
18296;SDS011;18066;52.106;5.534;2023-05-14T09:39:04;17.08;;;11.35;;
18296;SDS011;18066;52.106;5.534;2023-05-14T09:41:31;14.70;;;9.98;;
18296;SDS011;18066;52.106;5.534;2023-05-14T09:43:57;14.38;;;10.93;;
18296;SDS011;18066;52.106;5.534;2023-05-14T09:46:26;14.38;;;10.32;;
18296;SDS011;18066;52.106;5.534;2023-05-14T09:48:55;19.15;;;10.00;;
18296;SDS011;18066;52.106;5.534;2023-05-14T09:51:22;15.20;;;10.32;;
18296;SDS011;18066;52.106;5.534;2023-05-14T09:53:50;12.27;;;10.25;;
18296;SDS011;18066;52.106;5.534;2023-05-14T09:56:19;13.18;;;9.82;;
18296;SDS011;18066;52.106;5.534;2023-05-14T09:58:46;17.15;;;10.07;;
18296;SDS011;18066;52.106;5.534;2023-05-14T10:01:13;13.00;;;9.63;;
18296;SDS011;18066;52.106;5.534;2023-05-14T10:03:43;12.38;;;9.48;;
18296;SDS011;18066;52.106;5.534;2023-05-14T10:06:10;13.57;;;9.40;;
18296;SDS011;18066;52.106;5.534;2023-05-14T10:08:42;11.45;;;9.18;;
18296;SDS011;18066;52.106;5.534;2023-05-14T10:11:11;9.80;;;8.32;;
18296;SDS011;18066;52.106;5.534;2023-05-14T10:13:41;16.02;;;8.98;;
18296;SDS011;18066;52.106;5.534;2023-05-14T10:16:13;13.85;;;9.05;;
18296;SDS011;18066;52.106;5.534;2023-05-14T10:18:45;18.95;;;10.48;;
18296;SDS011;18066;52.106;5.534;2023-05-14T10:21:15;11.73;;;9.43;;
18296;SDS011;18066;52.106;5.534;2023-05-14T10:23:46;13.90;;;9.45;;
18296;SDS011;18066;52.106;5.534;2023-05-14T10:26:14;13.30;;;9.20;;
18296;SDS011;18066;52.106;5.534;2023-05-14T10:28:42;20.20;;;9.75;;
18296;SDS011;18066;52.106;5.534;2023-05-14T10:31:09;13.95;;;10.18;;
18296;SDS011;18066;52.106;5.534;2023-05-14T10:33:44;14.07;;;9.07;;
18296;SDS011;18066;52.106;5.534;2023-05-14T10:36:14;14.05;;;9.70;;
18296;SDS011;18066;52.106;5.534;2023-05-14T10:38:42;12.18;;;8.90;;
18296;SDS011;18066;52.106;5.534;2023-05-14T10:41:10;16.08;;;9.15;;
18296;SDS011;18066;52.106;5.534;2023-05-14T10:43:39;14.13;;;9.18;;
18296;SDS011;18066;52.106;5.534;2023-05-14T10:46:09;15.55;;;9.02;;
18296;SDS011;18066;52.106;5.534;2023-05-14T10:48:38;12.35;;;8.25;;
18296;SDS011;18066;52.106;5.534;2023-05-14T10:51:07;15.98;;;9.05;;
18296;SDS011;18066;52.106;5.534;2023-05-14T10:53:36;12.98;;;8.85;;
18296;SDS011;18066;52.106;5.534;2023-05-14T10:56:04;13.30;;;8.63;;
18296;SDS011;18066;52.106;5.534;2023-05-14T10:58:34;11.27;;;8.20;;
18296;SDS011;18066;52.106;5.534;2023-05-14T11:01:02;13.95;;;8.55;;
18296;SDS011;18066;52.106;5.534;2023-05-14T11:03:37;13.60;;;7.80;;
18296;SDS011;18066;52.106;5.534;2023-05-14T11:06:06;12.93;;;8.45;;
18296;SDS011;18066;52.106;5.534;2023-05-14T11:08:33;14.32;;;8.20;;
18296;SDS011;18066;52.106;5.534;2023-05-14T11:11:00;16.00;;;8.15;;
18296;SDS011;18066;52.106;5.534;2023-05-14T11:13:27;12.88;;;7.95;;
18296;SDS011;18066;52.106;5.534;2023-05-14T11:15:55;11.40;;;7.90;;
18296;SDS011;18066;52.106;5.534;2023-05-14T11:18:25;13.77;;;8.15;;
18296;SDS011;18066;52.106;5.534;2023-05-14T11:20:54;14.10;;;8.93;;
18296;SDS011;18066;52.106;5.534;2023-05-14T11:23:23;13.32;;;8.65;;
18296;SDS011;18066;52.106;5.534;2023-05-14T11:25:50;14.32;;;8.18;;
18296;SDS011;18066;52.106;5.534;2023-05-14T11:28:19;13.88;;;8.15;;
18296;SDS011;18066;52.106;5.534;2023-05-14T11:30:46;11.13;;;8.30;;
18296;SDS011;18066;52.106;5.534;2023-05-14T11:33:14;15.43;;;8.43;;
18296;SDS011;18066;52.106;5.534;2023-05-14T11:35:41;14.23;;;8.23;;
18296;SDS011;18066;52.106;5.534;2023-05-14T11:38:13;19.20;;;7.60;;
18296;SDS011;18066;52.106;5.534;2023-05-14T11:40:41;13.23;;;8.23;;
18296;SDS011;18066;52.106;5.534;2023-05-14T11:43:08;12.23;;;7.80;;
18296;SDS011;18066;52.106;5.534;2023-05-14T11:45:35;14.25;;;8.10;;
18296;SDS011;18066;52.106;5.534;2023-05-14T11:48:04;9.57;;;7.55;;
18296;SDS011;18066;52.106;5.534;2023-05-14T11:50:38;12.32;;;7.60;;
18296;SDS011;18066;52.106;5.534;2023-05-14T11:53:05;15.23;;;7.53;;
18296;SDS011;18066;52.106;5.534;2023-05-14T11:55:34;10.35;;;7.22;;
18296;SDS011;18066;52.106;5.534;2023-05-14T11:58:01;8.68;;;6.45;;
18296;SDS011;18066;52.106;5.534;2023-05-14T12:00:28;13.82;;;6.13;;
18296;SDS011;18066;52.106;5.534;2023-05-14T12:02:55;8.73;;;7.40;;
18296;SDS011;18066;52.106;5.534;2023-05-14T12:05:22;13.13;;;6.95;;
18296;SDS011;18066;52.106;5.534;2023-05-14T12:07:49;18.00;;;7.28;;
18296;SDS011;18066;52.106;5.534;2023-05-14T12:10:16;15.27;;;7.47;;
18296;SDS011;18066;52.106;5.534;2023-05-14T12:12:46;12.95;;;6.32;;
18296;SDS011;18066;52.106;5.534;2023-05-14T12:15:13;11.88;;;7.15;;
18296;SDS011;18066;52.106;5.534;2023-05-14T12:17:41;13.00;;;6.90;;
18296;SDS011;18066;52.106;5.534;2023-05-14T12:20:14;11.25;;;6.25;;
18296;SDS011;18066;52.106;5.534;2023-05-14T12:22:42;10.25;;;6.65;;
18296;SDS011;18066;52.106;5.534;2023-05-14T12:25:10;13.35;;;6.43;;
18296;SDS011;18066;52.106;5.534;2023-05-14T12:27:38;11.02;;;6.78;;
18296;SDS011;18066;52.106;5.534;2023-05-14T12:30:07;10.35;;;5.90;;
18296;SDS011;18066;52.106;5.534;2023-05-14T12:32:34;10.30;;;6.50;;
18296;SDS011;18066;52.106;5.534;2023-05-14T12:35:03;12.38;;;6.95;;
18296;SDS011;18066;52.106;5.534;2023-05-14T12:37:31;9.23;;;5.82;;
18296;SDS011;18066;52.106;5.534;2023-05-14T12:39:58;10.52;;;6.22;;
18296;SDS011;18066;52.106;5.534;2023-05-14T12:42:24;12.55;;;5.82;;
18296;SDS011;18066;52.106;5.534;2023-05-14T12:44:51;9.95;;;5.68;;
18296;SDS011;18066;52.106;5.534;2023-05-14T12:47:20;14.15;;;5.93;;
18296;SDS011;18066;52.106;5.534;2023-05-14T12:49:46;13.23;;;6.13;;
18296;SDS011;18066;52.106;5.534;2023-05-14T12:52:13;11.63;;;5.35;;
18296;SDS011;18066;52.106;5.534;2023-05-14T12:54:40;8.93;;;5.57;;
18296;SDS011;18066;52.106;5.534;2023-05-14T12:57:07;11.35;;;5.22;;
18296;SDS011;18066;52.106;5.534;2023-05-14T12:59:34;13.68;;;6.95;;
18296;SDS011;18066;52.106;5.534;2023-05-14T13:02:01;12.52;;;5.75;;
18296;SDS011;18066;52.106;5.534;2023-05-14T13:04:29;10.20;;;4.70;;
18296;SDS011;18066;52.106;5.534;2023-05-14T13:06:56;11.15;;;5.30;;
18296;SDS011;18066;52.106;5.534;2023-05-14T13:09:22;8.70;;;5.28;;
18296;SDS011;18066;52.106;5.534;2023-05-14T13:11:51;8.90;;;4.82;;
18296;SDS011;18066;52.106;5.534;2023-05-14T13:14:18;6.25;;;4.55;;
18296;SDS011;18066;52.106;5.534;2023-05-14T13:16:45;10.82;;;4.80;;
18296;SDS011;18066;52.106;5.534;2023-05-14T13:19:12;8.32;;;4.43;;
18296;SDS011;18066;52.106;5.534;2023-05-14T13:21:40;9.60;;;4.45;;
18296;SDS011;18066;52.106;5.534;2023-05-14T13:24:07;7.63;;;3.80;;
18296;SDS011;18066;52.106;5.534;2023-05-14T13:26:35;10.57;;;5.03;;
18296;SDS011;18066;52.106;5.534;2023-05-14T13:29:02;10.23;;;4.35;;
18296;SDS011;18066;52.106;5.534;2023-05-14T13:31:29;5.68;;;4.03;;
18296;SDS011;18066;52.106;5.534;2023-05-14T13:33:56;7.35;;;4.53;;
18296;SDS011;18066;52.106;5.534;2023-05-14T13:36:23;9.43;;;4.22;;
18296;SDS011;18066;52.106;5.534;2023-05-14T13:38:51;7.72;;;4.47;;
18296;SDS011;18066;52.106;5.534;2023-05-14T13:41:18;7.90;;;4.13;;
18296;SDS011;18066;52.106;5.534;2023-05-14T13:43:45;10.23;;;4.72;;
18296;SDS011;18066;52.106;5.534;2023-05-14T13:46:12;6.95;;;3.97;;
18296;SDS011;18066;52.106;5.534;2023-05-14T13:48:39;8.90;;;4.03;;
18296;SDS011;18066;52.106;5.534;2023-05-14T13:51:06;6.07;;;3.35;;
18296;SDS011;18066;52.106;5.534;2023-05-14T13:53:32;7.78;;;3.80;;
18296;SDS011;18066;52.106;5.534;2023-05-14T13:56:01;8.40;;;4.28;;
18296;SDS011;18066;52.106;5.534;2023-05-14T13:58:27;9.63;;;4.40;;
18296;SDS011;18066;52.106;5.534;2023-05-14T14:00:54;7.35;;;3.75;;
18296;SDS011;18066;52.106;5.534;2023-05-14T14:03:21;5.88;;;3.50;;
18296;SDS011;18066;52.106;5.534;2023-05-14T14:05:48;7.78;;;4.15;;
18296;SDS011;18066;52.106;5.534;2023-05-14T14:08:16;7.63;;;4.32;;
18296;SDS011;18066;52.106;5.534;2023-05-14T14:10:43;5.80;;;4.07;;
18296;SDS011;18066;52.106;5.534;2023-05-14T14:13:11;8.45;;;4.10;;
18296;SDS011;18066;52.106;5.534;2023-05-14T14:15:38;7.85;;;4.40;;
18296;SDS011;18066;52.106;5.534;2023-05-14T14:18:05;8.60;;;5.43;;
18296;SDS011;18066;52.106;5.534;2023-05-14T14:20:31;8.00;;;5.63;;
18296;SDS011;18066;52.106;5.534;2023-05-14T14:22:58;12.48;;;4.82;;
18296;SDS011;18066;52.106;5.534;2023-05-14T14:25:25;7.80;;;5.07;;
18296;SDS011;18066;52.106;5.534;2023-05-14T14:27:52;10.32;;;4.70;;
18296;SDS011;18066;52.106;5.534;2023-05-14T14:30:20;7.72;;;4.30;;